Time;durP1;ratioP1;P1;durP2;ratioP2;P2;SDS_P1;SDS_P2;PMS_P1;PMS_P2;Temp;Humidity;BMP_temperature;BMP_pressure;BME280_temperature;BME280_humidity;BME280_pressure;Samples;Min_cycle;Max_cycle;Signal;HPM_P1;HPM_P2
2020/12/14 00:01:14;;;;;;;2.60;2.40;;;6.00;99.90;;;;;;4989393;28;20220;-26
2020/12/14 00:03:44;;;;;;;3.38;3.03;;;5.90;99.90;;;;;;4989018;28;20211;-26
2020/12/14 00:06:15;;;;;;;2.72;2.53;;;5.90;99.90;;;;;;4989245;28;20786;-27
2020/12/14 00:08:45;;;;;;;3.35;3.05;;;5.80;99.90;;;;;;4988325;28;20204;-25
2020/12/14 00:11:15;;;;;;;3.92;3.58;;;5.80;99.90;;;;;;4989471;28;20278;-25
2020/12/14 00:13:47;;;;;;;3.83;3.40;;;5.80;99.90;;;;;;4989259;28;20231;-26
2020/12/14 00:16:17;;;;;;;14.63;4.60;;;5.80;99.90;;;;;;4990194;28;20259;-26
2020/12/14 00:18:47;;;;;;;3.90;3.60;;;5.90;99.90;;;;;;4989425;28;20257;-26
2020/12/14 00:21:20;;;;;;;3.60;3.30;;;5.90;99.90;;;;;;4989483;28;20239;-26
2020/12/14 00:23:51;;;;;;;3.90;3.60;;;5.90;99.90;;;;;;4988683;28;20299;-26
2020/12/14 00:26:21;;;;;;;4.63;3.70;;;5.90;99.90;;;;;;4989406;28;20674;-24
2020/12/14 00:28:51;;;;;;;4.05;3.75;;;5.80;99.90;;;;;;4989320;28;20196;-25
2020/12/14 00:31:22;;;;;;;4.00;3.70;;;5.80;99.90;;;;;;4989029;28;20223;-25
2020/12/14 00:33:52;;;;;;;3.70;3.40;;;5.70;99.90;;;;;;5005708;28;20247;-29
2020/12/14 00:36:24;;;;;;;4.82;4.32;;;5.70;99.90;;;;;;4996399;28;20559;-26
2020/12/14 00:38:54;;;;;;;5.55;4.90;;;5.70;99.90;;;;;;5004136;28;20557;-26
2020/12/14 00:41:24;;;;;;;5.30;4.90;;;5.70;99.90;;;;;;5004282;28;20232;-26
2020/12/14 00:43:54;;;;;;;8.20;6.47;;;5.80;99.90;;;;;;5009301;28;20286;-26
2020/12/14 00:46:24;;;;;;;7.72;7.10;;;5.80;99.90;;;;;;4995048;28;20664;-26
2020/12/14 00:48:54;;;;;;;38.67;13.73;;;5.90;99.90;;;;;;4989037;28;20288;-26
2020/12/14 00:51:28;;;;;;;6.82;6.18;;;6.00;99.90;;;;;;4995146;28;20696;-29
2020/12/14 00:53:59;;;;;;;5.95;5.35;;;6.00;99.90;;;;;;4989551;28;20338;-26
2020/12/14 00:56:29;;;;;;;7.20;4.70;;;6.00;99.90;;;;;;5008329;28;20203;-26
2020/12/14 00:58:59;;;;;;;3.40;3.13;;;6.10;99.90;;;;;;4987668;28;20200;-26
2020/12/14 01:01:29;;;;;;;4.53;4.07;;;6.00;99.90;;;;;;4993417;28;20204;-27
2020/12/14 01:04:00;;;;;;;4.80;4.40;;;6.00;99.90;;;;;;4992380;28;20193;-26
2020/12/14 01:09:06;;;;;;;5.53;5.03;;;6.00;99.90;;;;;;5785288;22;20231;-24
2020/12/14 01:11:36;;;;;;;7.22;6.55;;;6.00;99.90;;;;;;5008471;28;20334;-25
2020/12/14 01:14:07;;;;;;;6.07;5.57;;;6.00;99.90;;;;;;5010331;28;20306;-25
2020/12/14 01:16:37;;;;;;;4.50;4.10;;;5.90;99.90;;;;;;5007606;28;20230;-26
2020/12/14 01:19:07;;;;;;;5.55;4.95;;;5.90;99.90;;;;;;5012074;28;20198;-26
2020/12/14 01:21:37;;;;;;;4.47;3.92;;;6.00;99.90;;;;;;5011356;28;20195;-25
2020/12/14 01:24:08;;;;;;;4.57;4.13;;;6.10;99.90;;;;;;5011644;28;20293;-26
2020/12/14 01:26:38;;;;;;;5.63;5.13;;;6.00;99.90;;;;;;5011111;28;20191;-25
2020/12/14 01:29:08;;;;;;;4.82;4.43;;;6.00;99.90;;;;;;5009264;28;20559;-26
2020/12/14 01:31:38;;;;;;;4.40;4.00;;;6.10;99.90;;;;;;5010905;28;20277;-25
2020/12/14 01:34:08;;;;;;;3.78;3.47;;;6.00;99.90;;;;;;5011499;28;20666;-26
2020/12/14 01:36:38;;;;;;;4.80;4.30;;;6.00;99.90;;;;;;5011463;28;20655;-26
2020/12/14 01:39:10;;;;;;;5.03;4.63;;;6.00;99.90;;;;;;5011307;28;20214;-25
2020/12/14 01:41:40;;;;;;;5.93;5.35;;;6.00;99.90;;;;;;5012213;28;20246;-25
2020/12/14 01:44:10;;;;;;;5.05;4.65;;;5.90;99.90;;;;;;5011746;28;20676;-25
2020/12/14 01:46:43;;;;;;;5.30;4.82;;;5.90;99.90;;;;;;5011430;28;20593;-25
2020/12/14 01:49:14;;;;;;;5.05;4.65;;;5.90;99.90;;;;;;5011584;28;20226;-25
2020/12/14 01:51:45;;;;;;;6.07;4.88;;;5.90;99.90;;;;;;5011519;28;20592;-25
2020/12/14 01:54:24;;;;;;;5.50;4.82;;;5.90;99.90;;;;;;5010525;28;20195;-26
2020/12/14 01:56:54;;;;;;;5.22;4.82;;;5.90;99.90;;;;;;5000511;28;20202;-26
2020/12/14 01:59:24;;;;;;;6.40;5.68;;;5.90;99.90;;;;;;5018342;28;20209;-26
2020/12/14 02:01:54;;;;;;;5.93;5.32;;;5.90;99.90;;;;;;5006967;28;20226;-26
2020/12/14 02:04:24;;;;;;;8.60;5.95;;;5.90;99.90;;;;;;5003064;28;20270;-26
2020/12/14 02:06:54;;;;;;;7.00;6.30;;;6.00;99.90;;;;;;5010270;28;20207;-28
2020/12/14 02:09:26;;;;;;;7.63;6.93;;;6.00;99.90;;;;;;5009523;28;20316;-25
2020/12/14 02:11:56;;;;;;;8.35;5.97;;;5.90;99.90;;;;;;5009878;28;20313;-26
2020/12/14 02:14:26;;;;;;;6.63;6.03;;;6.00;99.90;;;;;;5010614;28;20285;-24
2020/12/14 02:16:56;;;;;;;6.18;5.68;;;6.00;99.90;;;;;;4994249;28;20200;-26
2020/12/14 02:19:26;;;;;;;6.05;5.55;;;6.00;99.90;;;;;;5010392;28;20199;-26
2020/12/14 02:21:57;;;;;;;5.88;5.38;;;6.10;99.90;;;;;;5010191;28;20582;-26
2020/12/14 02:24:28;;;;;;;14.07;12.63;;;6.20;99.90;;;;;;5010012;28;20506;-29
2020/12/14 02:26:58;;;;;;;11.38;10.38;;;6.20;99.90;;;;;;5003987;28;20556;-26
2020/12/14 02:29:29;;;;;;;16.40;14.90;;;6.20;99.90;;;;;;5007817;28;20265;-25
2020/12/14 02:31:59;;;;;;;70.30;19.77;;;6.20;99.90;;;;;;5010023;28;20626;-25
2020/12/14 02:34:29;;;;;;;6.45;5.85;;;6.20;99.90;;;;;;5009388;28;20239;-25
2020/12/14 02:36:59;;;;;;;6.88;6.05;;;6.30;99.90;;;;;;5010260;28;20330;-26
2020/12/14 02:39:31;;;;;;;7.20;6.50;;;6.20;99.90;;;;;;5009248;28;20245;-25
2020/12/14 02:42:01;;;;;;;7.15;6.45;;;6.20;99.90;;;;;;5010146;28;20198;-26
2020/12/14 02:44:31;;;;;;;8.50;7.60;;;6.20;99.90;;;;;;5005161;28;20206;-29
2020/12/14 02:47:01;;;;;;;8.63;7.93;;;6.20;99.90;;;;;;5010604;28;20253;-27
2020/12/14 02:49:32;;;;;;;8.75;7.97;;;6.10;99.90;;;;;;5003059;28;20199;-25
2020/12/14 02:52:02;;;;;;;10.05;9.10;;;6.20;99.90;;;;;;5002750;28;20220;-27
2020/12/14 02:54:34;;;;;;;10.65;9.40;;;6.20;99.90;;;;;;5009005;28;20214;-26
2020/12/14 02:57:04;;;;;;;10.32;9.45;;;6.10;99.90;;;;;;5008692;28;20195;-27
2020/12/14 02:59:34;;;;;;;13.18;10.70;;;6.10;99.90;;;;;;5001504;28;20651;-25
2020/12/14 03:02:04;;;;;;;13.70;12.52;;;6.00;99.90;;;;;;4998049;28;20246;-26
2020/12/14 03:04:35;;;;;;;12.55;11.30;;;6.10;99.90;;;;;;5009091;28;20200;-27
2020/12/14 03:07:05;;;;;;;11.27;10.18;;;6.10;99.90;;;;;;5010423;28;20286;-27
2020/12/14 03:09:36;;;;;;;10.50;9.55;;;6.20;99.90;;;;;;5008832;28;20674;-27
2020/12/14 03:12:06;;;;;;;16.27;11.73;;;6.10;99.90;;;;;;5010198;28;20215;-27
2020/12/14 03:14:36;;;;;;;1160.45;203.05;;;6.30;99.90;;;;;;5009403;28;20249;-26
2020/12/14 03:17:06;;;;;;;16.75;15.23;;;6.30;99.90;;;;;;5008947;28;20187;-26
2020/12/14 03:19:36;;;;;;;14.98;13.68;;;6.30;99.90;;;;;;5009894;28;20402;-28
2020/12/14 03:22:06;;;;;;;13.07;11.85;;;6.20;99.90;;;;;;5000031;28;20257;-26
2020/12/14 03:24:38;;;;;;;12.45;11.27;;;6.20;99.90;;;;;;5004357;28;20203;-27
2020/12/14 03:27:08;;;;;;;15.75;14.05;;;6.20;99.90;;;;;;5008800;28;20200;-27
2020/12/14 03:29:38;;;;;;;15.38;13.77;;;6.20;99.90;;;;;;5009101;28;20195;-25
2020/12/14 03:32:08;;;;;;;15.30;13.77;;;6.20;99.90;;;;;;5009150;28;20717;-25
2020/12/14 03:34:38;;;;;;;15.35;13.90;;;6.10;99.90;;;;;;5007928;28;20199;-26
2020/12/14 03:37:08;;;;;;;15.93;14.32;;;6.10;99.90;;;;;;5009054;28;20200;-26
2020/12/14 03:39:39;;;;;;;16.55;14.85;;;6.00;99.90;;;;;;5000501;28;20195;-26
2020/12/14 03:42:09;;;;;;;17.52;15.90;;;6.10;99.90;;;;;;5009144;28;20229;-26
2020/12/14 03:44:39;;;;;;;17.35;15.55;;;6.00;99.90;;;;;;5000137;28;20219;-26
2020/12/14 03:47:09;;;;;;;17.33;15.52;;;6.10;99.90;;;;;;5005215;28;20199;-25
2020/12/14 03:49:40;;;;;;;19.15;17.00;;;6.20;99.90;;;;;;5008862;28;20195;-26
2020/12/14 03:52:10;;;;;;;639.55;126.38;;;6.20;99.90;;;;;;5002852;28;20218;-26
2020/12/14 03:54:41;;;;;;;1999.90;401.50;;;6.40;99.90;;;;;;5008870;28;20650;-26
2020/12/14 03:57:11;;;;;;;21.58;19.48;;;6.50;99.90;;;;;;5006138;28;20199;-25
2020/12/14 03:59:41;;;;;;;21.48;19.27;;;6.40;99.90;;;;;;5009586;28;20207;-26
2020/12/14 04:02:11;;;;;;;18.52;16.65;;;6.30;99.90;;;;;;5008835;28;20225;-26
2020/12/14 04:04:41;;;;;;;17.30;15.73;;;6.30;99.90;;;;;;5008642;28;20674;-26
2020/12/14 04:07:11;;;;;;;17.33;15.70;;;6.40;99.90;;;;;;5008249;28;20681;-24
2020/12/14 04:09:43;;;;;;;16.42;14.88;;;6.40;99.90;;;;;;5007840;28;20235;-25
2020/12/14 04:12:13;;;;;;;16.00;14.50;;;6.20;99.90;;;;;;5003352;28;20277;-25
2020/12/14 04:14:46;;;;;;;16.98;15.18;;;6.20;99.90;;;;;;5013314;28;20250;-25
2020/12/14 04:17:17;;;;;;;19.20;16.27;;;6.20;99.90;;;;;;5013249;28;20674;-25
2020/12/14 04:19:47;;;;;;;14.35;12.90;;;6.10;99.90;;;;;;5012978;28;20246;-26
2020/12/14 04:22:17;;;;;;;12.27;11.02;;;6.30;99.90;;;;;;5012199;28;20261;-27
2020/12/14 04:24:48;;;;;;;9.40;8.50;;;6.30;99.90;;;;;;5011857;28;20199;-26
2020/12/14 04:27:19;;;;;;;10.43;9.30;;;6.30;99.90;;;;;;5012777;28;20210;-24
2020/12/14 04:29:49;;;;;;;9.15;8.25;;;6.40;99.90;;;;;;5011984;28;20329;-25
2020/12/14 04:32:19;;;;;;;7.90;7.20;;;6.40;99.90;;;;;;5011660;28;20580;-25
2020/12/14 04:34:49;;;;;;;7.47;6.78;;;6.40;99.90;;;;;;5006670;28;20286;-25
2020/12/14 04:37:19;;;;;;;8.05;7.32;;;6.40;99.90;;;;;;5011724;28;20207;-26
2020/12/14 04:39:50;;;;;;;7.18;6.47;;;6.30;99.90;;;;;;5012368;28;20203;-26
2020/12/14 04:42:21;;;;;;;7.57;6.82;;;6.30;99.90;;;;;;5012167;28;20207;-26
2020/12/14 04:44:55;;;;;;;7.40;6.70;;;6.30;99.90;;;;;;5012806;28;20230;-26
2020/12/14 04:47:26;;;;;;;7.55;6.88;;;6.30;99.90;;;;;;5012472;28;20226;-26
2020/12/14 04:49:56;;;;;;;6.80;6.05;;;6.30;99.90;;;;;;5010676;28;20196;-25
2020/12/14 04:52:28;;;;;;;7.72;6.93;;;6.30;99.90;;;;;;5009545;28;20310;-26
2020/12/14 04:54:59;;;;;;;7.38;6.68;;;6.30;99.90;;;;;;5011569;28;20203;-26
2020/12/14 04:57:33;;;;;;;7.75;6.95;;;6.20;99.90;;;;;;5011484;28;20226;-26
2020/12/14 05:00:04;;;;;;;8.02;7.05;;;6.20;99.90;;;;;;5011988;28;20499;-25
2020/12/14 05:02:34;;;;;;;9.32;8.32;;;6.30;99.90;;;;;;5012135;28;20199;-25
2020/12/14 05:05:04;;;;;;;9.48;8.63;;;6.30;99.90;;;;;;5011438;28;20597;-26
2020/12/14 05:07:41;;;;;;;10.63;8.05;;;6.30;99.90;;;;;;5011169;28;20257;-25
2020/12/14 05:10:14;;;;;;;10.25;9.15;;;6.30;99.90;;;;;;5003577;28;20242;-25
2020/12/14 05:12:45;;;;;;;9.90;8.90;;;6.30;99.90;;;;;;5011948;28;20219;-26
2020/12/14 05:15:33;;;;;;;10.05;9.07;;;6.40;99.90;;;;;;5011794;28;20647;-27
2020/12/14 05:18:11;;;;;;;8.45;7.63;;;6.40;99.90;;;;;;5011378;28;20237;-26
2020/12/14 05:20:42;;;;;;;8.40;7.60;;;6.40;99.90;;;;;;5011329;28;20196;-24
2020/12/14 05:23:13;;;;;;;7.90;7.20;;;6.40;99.90;;;;;;5011345;28;20609;-25
2020/12/14 05:25:44;;;;;;;8.93;7.78;;;6.30;99.90;;;;;;5001437;28;20628;-26
2020/12/14 05:28:19;;;;;;;10.10;8.30;;;6.30;99.90;;;;;;4993414;28;20574;-25
2020/12/14 05:30:50;;;;;;;9.20;8.32;;;6.30;99.90;;;;;;5000197;28;20187;-26
2020/12/14 05:33:23;;;;;;;9.35;8.45;;;6.30;99.90;;;;;;5010609;28;20215;-26
2020/12/14 05:35:53;;;;;;;8.82;8.02;;;6.30;99.90;;;;;;5011094;28;20191;-25
2020/12/14 05:38:25;;;;;;;8.68;7.78;;;6.30;99.90;;;;;;5006777;28;20192;-25
2020/12/14 05:40:57;;;;;;;9.23;8.43;;;6.30;99.90;;;;;;5011371;28;20202;-25
2020/12/14 05:43:29;;;;;;;8.65;7.85;;;6.30;99.90;;;;;;5010710;28;20206;-26
2020/12/14 05:46:12;;;;;;;8.48;7.68;;;6.30;99.90;;;;;;5010975;28;20195;-25
2020/12/14 05:48:43;;;;;;;9.20;8.30;;;6.30;99.90;;;;;;5016709;28;20264;-25
2020/12/14 05:51:13;;;;;;;8.30;7.43;;;6.30;99.90;;;;;;5019549;28;20194;-26
2020/12/14 05:53:48;;;;;;;9.55;8.55;;;6.30;99.90;;;;;;5009911;28;20747;-25
2020/12/14 05:56:20;;;;;;;8.63;7.78;;;6.30;99.90;;;;;;5010877;28;20191;-27
2020/12/14 05:58:53;;;;;;;9.50;8.57;;;6.30;99.90;;;;;;5010803;28;20284;-26
2020/12/14 06:01:24;;;;;;;10.30;9.30;;;6.30;99.90;;;;;;5010714;28;20287;-26
2020/12/14 06:03:59;;;;;;;9.73;8.82;;;6.30;99.90;;;;;;5010476;28;20583;-27
2020/12/14 06:06:38;;;;;;;10.27;9.23;;;6.30;99.90;;;;;;4995241;28;20659;-25
2020/12/14 06:09:09;;;;;;;10.55;9.45;;;6.40;99.90;;;;;;4999764;28;20296;-26
2020/12/14 06:11:40;;;;;;;9.15;8.15;;;6.40;99.90;;;;;;5010380;28;20215;-26
2020/12/14 06:14:14;;;;;;;9.65;8.40;;;6.50;99.90;;;;;;5009653;28;20206;-26
2020/12/14 06:16:48;;;;;;;8.48;7.68;;;6.50;99.90;;;;;;5010848;28;20186;-26
2020/12/14 06:19:19;;;;;;;9.35;8.40;;;6.40;99.90;;;;;;5009870;28;20187;-26
2020/12/14 06:21:59;;;;;;;9.65;7.93;;;6.50;99.90;;;;;;5010806;28;20191;-26
2020/12/14 06:24:32;;;;;;;8.20;7.40;;;6.50;99.90;;;;;;5009929;28;20690;-27
2020/12/14 06:27:04;;;;;;;9.52;8.52;;;6.50;99.90;;;;;;5010244;28;20568;-27
2020/12/14 06:29:35;;;;;;;9.63;8.38;;;6.50;99.90;;;;;;5007651;28;20208;-25
2020/12/14 06:32:25;;;;;;;9.68;8.70;;;6.50;99.90;;;;;;5009931;28;20211;-26
2020/12/14 06:34:55;;;;;;;9.38;8.40;;;6.50;99.90;;;;;;5016613;28;20579;-26
2020/12/14 06:37:25;;;;;;;8.98;8.02;;;6.40;99.90;;;;;;5013358;28;20265;-26
2020/12/14 06:40:00;;;;;;;9.07;8.18;;;6.40;99.90;;;;;;5007909;28;20671;-25
2020/12/14 06:42:32;;;;;;;9.07;8.18;;;6.40;99.90;;;;;;5010273;28;20198;-26
2020/12/14 06:45:12;;;;;;;11.30;9.43;;;6.40;99.90;;;;;;5010407;28;20195;-25
2020/12/14 06:47:46;;;;;;;9.40;8.50;;;6.40;99.90;;;;;;5008592;28;20606;-25
2020/12/14 06:50:37;;;;;;;9.85;8.90;;;6.40;99.90;;;;;;5009481;28;20273;-25
2020/12/14 06:53:44;;;;;;;9.35;8.45;;;6.50;99.90;;;;;;5009804;28;20211;-26
2020/12/14 06:56:16;;;;;;;9.80;8.90;;;6.50;99.90;;;;;;4990926;28;20662;-26
2020/12/14 06:58:48;;;;;;;9.43;8.43;;;6.60;99.90;;;;;;5000360;28;20191;-26
2020/12/14 07:01:38;;;;;;;9.25;8.13;;;6.60;99.90;;;;;;5010052;28;20203;-26
2020/12/14 07:04:33;;;;;;;8.63;7.88;;;6.60;99.90;;;;;;5009283;28;20611;-25
2020/12/14 07:07:30;;;;;;;9.75;8.93;;;6.60;99.90;;;;;;4990501;28;20257;-26
2020/12/14 07:10:16;;;;;;;10.70;9.70;;;6.60;99.90;;;;;;5007699;28;20682;-26
2020/12/14 07:12:47;;;;;;;9.95;8.95;;;6.60;99.90;;;;;;5010036;28;20277;-26
2020/12/14 07:15:38;;;;;;;10.23;9.23;;;6.60;99.90;;;;;;5010164;28;20206;-26
2020/12/14 07:18:10;;;;;;;10.77;9.70;;;6.60;99.90;;;;;;5009911;28;20630;-25
2020/12/14 07:21:07;;;;;;;9.70;8.73;;;6.60;99.90;;;;;;5010241;28;20234;-26
2020/12/14 07:23:38;;;;;;;9.10;8.18;;;6.60;99.90;;;;;;5008701;28;20302;-25
2020/12/14 07:26:10;;;;;;;10.50;9.10;;;6.60;99.90;;;;;;5009529;28;20645;-25
2020/12/14 07:28:48;;;;;;;9.82;8.82;;;6.60;99.90;;;;;;4995120;28;20195;-25
2020/12/14 07:31:21;;;;;;;8.98;8.00;;;6.60;99.90;;;;;;5009528;28;20242;-26
2020/12/14 07:33:53;;;;;;;10.20;8.18;;;6.60;99.90;;;;;;5009176;28;20234;-25
2020/12/14 07:36:24;;;;;;;10.18;9.23;;;6.60;99.90;;;;;;5009342;28;20203;-25
2020/12/14 07:38:55;;;;;;;9.32;8.38;;;6.70;99.90;;;;;;5001841;28;20188;-25
2020/12/14 07:41:27;;;;;;;9.75;8.85;;;6.60;99.90;;;;;;5009140;28;20192;-25
2020/12/14 07:43:59;;;;;;;9.38;8.38;;;6.60;99.90;;;;;;5009341;28;20665;-26
2020/12/14 07:46:33;;;;;;;9.93;8.45;;;6.60;99.90;;;;;;5009534;28;20269;-25
2020/12/14 07:49:06;;;;;;;9.50;8.50;;;6.70;99.90;;;;;;5009567;28;20190;-26
2020/12/14 07:51:39;;;;;;;8.57;7.75;;;6.60;99.90;;;;;;5009436;28;20203;-26
2020/12/14 07:54:11;;;;;;;10.18;9.27;;;6.70;99.90;;;;;;5007999;28;20211;-26
2020/12/14 07:56:49;;;;;;;10.95;9.85;;;6.60;99.90;;;;;;5007967;28;20257;-25
2020/12/14 07:59:26;;;;;;;10.20;9.25;;;6.70;99.90;;;;;;5007194;28;20556;-26
2020/12/14 08:01:58;;;;;;;9.95;8.95;;;6.70;99.90;;;;;;5008028;28;20191;-27
2020/12/14 08:04:30;;;;;;;10.55;9.55;;;6.70;99.90;;;;;;5009235;28;20229;-26
2020/12/14 08:07:01;;;;;;;10.38;9.43;;;6.70;99.90;;;;;;4994793;28;20245;-26
2020/12/14 08:09:34;;;;;;;12.80;10.65;;;6.80;99.90;;;;;;5008507;28;20243;-26
2020/12/14 08:12:06;;;;;;;10.77;9.88;;;6.70;99.90;;;;;;5003311;28;20213;-27
2020/12/14 08:14:36;;;;;;;12.40;10.95;;;6.60;99.90;;;;;;5009479;28;20264;-26
2020/12/14 08:17:12;;;;;;;13.45;11.40;;;6.60;99.90;;;;;;5009346;28;20274;-26
2020/12/14 08:19:44;;;;;;;13.27;12.00;;;6.70;99.90;;;;;;5009671;28;20241;-26
2020/12/14 08:22:14;;;;;;;12.95;11.40;;;6.70;99.90;;;;;;5008663;28;20203;-27
2020/12/14 08:24:44;;;;;;;13.65;11.63;;;6.80;99.90;;;;;;5008971;28;20203;-25
2020/12/14 08:27:15;;;;;;;12.13;10.50;;;6.90;99.90;;;;;;4999410;28;20552;-26
2020/12/14 08:29:58;;;;;;;11.68;10.57;;;6.90;99.90;;;;;;5005558;28;20199;-26
2020/12/14 08:32:29;;;;;;;12.30;11.10;;;6.80;99.90;;;;;;5006831;28;20219;-25
2020/12/14 08:34:59;;;;;;;13.35;11.90;;;6.80;99.90;;;;;;5008874;28;20195;-26
2020/12/14 08:37:29;;;;;;;11.00;9.90;;;6.80;99.90;;;;;;5008764;28;20241;-26
2020/12/14 08:40:00;;;;;;;12.00;9.93;;;6.70;99.90;;;;;;5005007;28;20196;-25
2020/12/14 08:42:30;;;;;;;12.80;11.45;;;6.70;99.90;;;;;;5005847;28;20195;-25
2020/12/14 08:45:11;;;;;;;12.32;10.82;;;6.80;99.90;;;;;;5009226;28;20195;-27
2020/12/14 08:47:44;;;;;;;13.45;11.32;;;6.90;99.90;;;;;;5008891;28;20218;-27
2020/12/14 08:50:17;;;;;;;11.38;10.27;;;6.90;99.90;;;;;;4995940;28;20287;-26
2020/12/14 08:53:00;;;;;;;12.70;10.93;;;6.80;99.90;;;;;;5007989;28;20223;-26
2020/12/14 08:55:38;;;;;;;13.82;12.07;;;6.80;99.90;;;;;;5008567;28;20215;-26
2020/12/14 08:58:08;;;;;;;12.35;10.15;;;6.90;99.90;;;;;;5012323;28;20660;-26
2020/12/14 09:00:38;;;;;;;12.55;10.93;;;7.00;99.90;;;;;;5012823;28;20253;-26
2020/12/14 09:03:09;;;;;;;13.15;11.75;;;7.00;99.90;;;;;;5011964;28;20354;-26
2020/12/14 09:05:39;;;;;;;12.38;11.18;;;7.00;99.90;;;;;;5012778;28;20737;-26
2020/12/14 09:08:51;;;;;;;13.38;11.75;;;7.10;99.90;;;;;;5012081;28;20282;-26
2020/12/14 09:11:21;;;;;;;13.15;11.85;;;7.00;99.90;;;;;;4972895;28;20266;-26
2020/12/14 09:13:51;;;;;;;13.13;11.82;;;7.00;99.90;;;;;;4973394;28;20232;-26
2020/12/14 09:16:21;;;;;;;12.60;11.40;;;7.00;99.90;;;;;;4964510;28;20202;-25
2020/12/14 09:18:52;;;;;;;12.63;11.38;;;6.90;99.90;;;;;;4971856;28;20205;-25
2020/12/14 09:21:24;;;;;;;14.10;12.27;;;7.00;99.90;;;;;;4972943;28;20193;-25
2020/12/14 09:24:18;;;;;;;12.20;10.82;;;7.10;99.90;;;;;;4971167;28;20627;-25
2020/12/14 09:26:49;;;;;;;12.50;11.05;;;7.10;99.90;;;;;;4970796;28;20765;-27
2020/12/14 09:29:19;;;;;;;13.20;11.90;;;7.10;99.90;;;;;;4971931;28;20622;-26
2020/12/14 09:31:53;;;;;;;12.93;11.40;;;7.10;99.90;;;;;;4972677;28;20197;-25
2020/12/14 09:34:25;;;;;;;13.20;11.73;;;7.20;99.90;;;;;;4972560;28;20308;-25
2020/12/14 09:36:56;;;;;;;11.32;10.23;;;7.10;99.90;;;;;;4973061;28;20196;-25
2020/12/14 09:39:28;;;;;;;12.75;11.32;;;7.10;99.90;;;;;;4971842;28;20644;-26
2020/12/14 09:41:59;;;;;;;11.93;10.73;;;7.20;99.90;;;;;;4971922;28;20634;-25
2020/12/14 09:44:30;;;;;;;12.30;11.02;;;7.10;99.90;;;;;;4972557;28;20188;-25
2020/12/14 09:47:01;;;;;;;14.80;13.10;;;7.20;99.90;;;;;;4972677;28;20315;-26
2020/12/14 09:49:32;;;;;;;14.45;12.98;;;7.30;99.90;;;;;;4972615;28;20267;-26
2020/12/14 09:52:02;;;;;;;12.50;11.20;;;7.40;99.90;;;;;;4972414;28;20197;-26
2020/12/14 09:54:32;;;;;;;13.93;12.63;;;7.40;99.90;;;;;;4972023;28;20323;-26
2020/12/14 09:57:02;;;;;;;13.10;11.75;;;7.30;99.90;;;;;;4972603;28;20303;-26
2020/12/14 09:59:32;;;;;;;12.77;11.57;;;7.40;99.90;;;;;;4972605;28;20205;-27
2020/12/14 10:02:02;;;;;;;13.27;11.90;;;7.30;99.90;;;;;;4972412;28;20275;-26
2020/12/14 10:04:34;;;;;;;12.75;11.40;;;7.50;99.90;;;;;;4972639;28;20192;-26
2020/12/14 10:07:04;;;;;;;12.75;10.38;;;7.50;99.90;;;;;;4972370;28;20220;-26
2020/12/14 10:09:34;;;;;;;11.27;10.18;;;7.60;99.90;;;;;;4982150;28;20262;-27
2020/12/14 10:12:04;;;;;;;13.23;10.13;;;7.60;99.90;;;;;;5010708;28;20210;-26
2020/12/14 10:14:34;;;;;;;11.07;9.98;;;7.60;99.90;;;;;;4996098;28;20230;-26
2020/12/14 10:17:04;;;;;;;9.10;7.15;;;7.50;99.90;;;;;;5011356;28;20195;-26
2020/12/14 10:19:35;;;;;;;7.10;6.50;;;7.50;99.90;;;;;;5011135;28;20654;-26
2020/12/14 10:22:05;;;;;;;6.80;5.97;;;7.60;99.90;;;;;;5010933;28;20192;-26
2020/12/14 10:24:35;;;;;;;5.30;4.90;;;7.50;99.90;;;;;;4995909;28;20206;-27
2020/12/14 10:27:06;;;;;;;5.03;4.55;;;7.60;99.90;;;;;;5010922;28;20203;-38
2020/12/14 10:29:37;;;;;;;4.65;4.25;;;7.70;99.90;;;;;;5010439;28;20198;-25
2020/12/14 10:32:07;;;;;;;5.18;4.35;;;7.80;99.90;;;;;;5008858;28;20198;-25
2020/12/14 10:34:39;;;;;;;6.22;5.47;;;7.80;99.90;;;;;;5007893;28;20655;-26
2020/12/14 10:37:09;;;;;;;5.15;4.65;;;7.90;99.90;;;;;;5010628;28;20283;-26
2020/12/14 10:39:40;;;;;;;5.40;5.00;;;7.80;99.90;;;;;;5010449;28;20202;-25
2020/12/14 10:42:10;;;;;;;5.07;4.57;;;7.80;99.90;;;;;;5005801;28;20612;-26
2020/12/14 10:44:40;;;;;;;4.45;4.10;;;7.80;99.90;;;;;;5003896;28;20203;-26
2020/12/14 10:47:10;;;;;;;5.35;4.82;;;7.90;99.90;;;;;;5010331;28;20258;-26
2020/12/14 10:49:41;;;;;;;5.85;5.35;;;7.90;99.90;;;;;;5010662;28;20279;-26
2020/12/14 10:52:11;;;;;;;7.50;4.82;;;8.00;99.90;;;;;;4995764;28;20598;-25
2020/12/14 10:54:41;;;;;;;5.82;5.22;;;7.90;99.90;;;;;;5009179;28;20292;-26
2020/12/14 10:57:11;;;;;;;4.80;4.40;;;7.90;99.90;;;;;;5009613;28;20195;-26
2020/12/14 10:59:41;;;;;;;5.13;4.63;;;7.90;99.90;;;;;;5010242;28;20227;-27
2020/12/14 11:02:11;;;;;;;5.43;4.93;;;7.90;99.90;;;;;;5010037;28;20261;-27
2020/12/14 11:04:42;;;;;;;5.13;4.65;;;8.00;99.90;;;;;;5009207;28;20203;-26
2020/12/14 11:07:13;;;;;;;6.32;4.88;;;8.00;99.90;;;;;;5009678;28;20198;-27
2020/12/14 11:09:43;;;;;;;5.57;5.15;;;8.00;99.90;;;;;;5009347;28;20234;-28
2020/12/14 11:12:13;;;;;;;7.07;5.93;;;8.00;99.90;;;;;;5008346;28;20229;-26
2020/12/14 11:14:43;;;;;;;5.18;4.68;;;8.00;99.90;;;;;;5009535;28;20313;-26
2020/12/14 11:17:15;;;;;;;4.57;4.18;;;8.00;99.90;;;;;;4996721;28;20613;-26
2020/12/14 11:19:46;;;;;;;6.40;5.38;;;8.00;99.90;;;;;;5009450;28;20206;-26
2020/12/14 11:22:16;;;;;;;5.68;5.18;;;8.10;99.90;;;;;;5008762;28;20200;-26
2020/12/14 11:24:46;;;;;;;7.75;4.85;;;8.10;99.90;;;;;;4995297;28;20290;-26
2020/12/14 11:27:20;;;;;;;6.95;5.55;;;8.10;99.90;;;;;;5009604;28;20630;-26
2020/12/14 11:29:50;;;;;;;5.70;4.97;;;8.10;99.90;;;;;;5008604;28;20214;-27
2020/12/14 11:32:20;;;;;;;5.95;5.35;;;8.10;99.90;;;;;;5004536;28;20221;-27
2020/12/14 11:34:52;;;;;;;4.90;4.50;;;8.00;99.90;;;;;;5009325;28;20277;-26
2020/12/14 11:37:23;;;;;;;5.45;4.95;;;8.00;99.90;;;;;;5009372;28;20202;-26
2020/12/14 11:39:53;;;;;;;5.63;4.82;;;7.90;99.90;;;;;;5009661;28;20690;-26
2020/12/14 11:42:23;;;;;;;4.72;4.32;;;7.90;99.90;;;;;;5009765;28;20524;-26
2020/12/14 11:44:53;;;;;;;7.57;5.22;;;7.90;99.90;;;;;;5008461;28;20207;-26
2020/12/14 11:47:24;;;;;;;7.45;5.03;;;8.00;99.90;;;;;;5008377;28;20651;-26
2020/12/14 11:49:57;;;;;;;4.72;4.20;;;8.00;99.90;;;;;;5009082;28;20192;-26
2020/12/14 11:52:27;;;;;;;5.75;5.00;;;8.00;99.90;;;;;;5006708;28;20261;-26
2020/12/14 11:54:57;;;;;;;7.68;4.80;;;8.00;99.90;;;;;;5008169;28;20273;-26
2020/12/14 11:57:27;;;;;;;6.47;4.60;;;8.00;99.90;;;;;;5009459;28;20211;-26
2020/12/14 11:59:57;;;;;;;5.47;4.97;;;8.00;99.90;;;;;;5009057;28;20280;-27
2020/12/14 12:02:27;;;;;;;5.97;4.78;;;8.10;99.90;;;;;;5003846;28;20372;-26
2020/12/14 12:04:59;;;;;;;7.65;5.68;;;8.10;99.90;;;;;;5009713;28;20673;-26
2020/12/14 12:07:29;;;;;;;6.28;5.63;;;8.20;99.90;;;;;;4997025;28;20230;-26
2020/12/14 12:09:59;;;;;;;7.53;6.70;;;8.00;99.90;;;;;;5009040;28;20223;-27
2020/12/14 12:12:29;;;;;;;7.53;6.82;;;7.90;99.90;;;;;;5010115;28;20642;-27
2020/12/14 12:14:59;;;;;;;7.93;7.13;;;7.90;99.90;;;;;;5009196;28;20238;-26
2020/12/14 12:17:29;;;;;;;7.13;6.43;;;7.90;99.90;;;;;;5003499;28;20195;-26
2020/12/14 12:20:01;;;;;;;8.77;7.20;;;7.80;99.90;;;;;;5009428;28;20195;-27
2020/12/14 12:22:31;;;;;;;7.88;7.18;;;7.80;99.90;;;;;;5008352;28;20195;-26
2020/12/14 12:25:01;;;;;;;7.78;6.97;;;7.80;99.90;;;;;;5006226;28;20196;-26
2020/12/14 12:27:31;;;;;;;9.05;8.07;;;7.80;99.90;;;;;;5001429;28;20196;-28
2020/12/14 12:30:01;;;;;;;10.02;8.50;;;7.90;99.90;;;;;;4998607;28;20198;-26
2020/12/14 12:32:31;;;;;;;8.88;7.97;;;7.80;99.90;;;;;;5011708;28;20559;-26
2020/12/14 12:35:02;;;;;;;9.70;8.50;;;7.70;99.90;;;;;;5012748;28;20321;-27
2020/12/14 12:37:32;;;;;;;8.38;7.47;;;7.70;99.90;;;;;;5012140;28;20267;-27
2020/12/14 12:40:05;;;;;;;8.45;7.57;;;7.60;99.90;;;;;;5006800;28;20337;-26
2020/12/14 12:42:35;;;;;;;8.55;7.75;;;7.70;99.90;;;;;;4999738;28;20240;-27
2020/12/14 12:45:05;;;;;;;8.60;7.70;;;7.70;99.90;;;;;;5010203;28;20250;-26
2020/12/14 12:47:35;;;;;;;6.95;6.25;;;7.80;99.90;;;;;;4997275;28;20601;-26
2020/12/14 12:50:07;;;;;;;9.07;8.18;;;7.80;99.90;;;;;;5013047;28;20228;-27
2020/12/14 12:52:37;;;;;;;6.35;5.70;;;7.80;99.90;;;;;;5012202;28;20210;-26
2020/12/14 12:55:07;;;;;;;7.45;6.57;;;7.90;99.90;;;;;;5008620;28;20231;-26
2020/12/14 12:57:39;;;;;;;7.78;6.50;;;8.00;99.90;;;;;;5007634;28;20282;-27
2020/12/14 13:00:09;;;;;;;7.15;6.20;;;7.90;99.90;;;;;;5011288;28;20274;-26
2020/12/14 13:02:39;;;;;;;8.27;6.35;;;7.90;99.90;;;;;;5004181;28;20720;-27
2020/12/14 13:05:10;;;;;;;6.70;5.78;;;7.90;99.90;;;;;;5008578;28;20222;-26
2020/12/14 13:07:40;;;;;;;6.50;5.90;;;7.90;99.90;;;;;;5011775;28;20198;-25
2020/12/14 13:10:11;;;;;;;5.93;5.32;;;7.80;99.90;;;;;;5010799;28;20233;-26
2020/12/14 13:12:41;;;;;;;7.43;6.20;;;7.70;99.90;;;;;;5011802;28;20246;-26
2020/12/14 13:15:11;;;;;;;6.47;5.45;;;7.70;99.90;;;;;;5010882;28;20228;-26
2020/12/14 13:17:41;;;;;;;7.15;5.25;;;7.60;99.90;;;;;;4996269;28;20191;-26